Time;durP1;ratioP1;P1;durP2;ratioP2;P2;SDS_P1;SDS_P2;PMS_P1;PMS_P2;Temp;Humidity;BMP_temperature;BMP_pressure;BME280_temperature;BME280_humidity;BME280_pressure;Samples;Min_cycle;Max_cycle;Signal;HPM_P1;HPM_P2
2022/10/02 00:00:11;;;;;;;12.35;2.40;;;11.50;99.90;;;;;;4992508;28;20077;-73
2022/10/02 00:02:50;;;;;;;10.23;2.17;;;11.50;99.90;;;;;;4971966;28;20042;-73
2022/10/02 00:05:27;;;;;;;10.45;2.17;;;11.40;99.90;;;;;;4994055;28;20058;-73
2022/10/02 00:08:17;;;;;;;12.63;2.20;;;11.30;99.90;;;;;;4977992;28;20448;-72
2022/10/02 00:10:47;;;;;;;15.75;2.78;;;11.20;99.90;;;;;;4975953;28;20077;-72
2022/10/02 00:13:27;;;;;;;13.32;3.25;;;11.30;99.90;;;;;;4985603;28;20046;-71
2022/10/02 00:15:54;;;;;;;15.30;2.90;;;11.20;99.90;;;;;;5012934;28;20053;-72
2022/10/02 00:18:27;;;;;;;17.77;3.20;;;11.20;99.90;;;;;;4961685;28;20164;-73
2022/10/02 00:21:03;;;;;;;14.98;3.70;;;11.20;99.90;;;;;;4992776;28;20042;-73
2022/10/02 00:23:40;;;;;;;18.77;4.30;;;11.30;99.90;;;;;;4993151;28;20124;-73
2022/10/02 00:26:40;;;;;;;24.17;4.25;;;11.20;99.90;;;;;;4992577;28;20050;-74
2022/10/02 00:29:35;;;;;;;25.95;4.65;;;11.20;99.90;;;;;;5005803;28;20053;-74
2022/10/02 00:32:26;;;;;;;22.42;4.32;;;11.20;99.90;;;;;;4993234;28;20068;-75
2022/10/02 00:34:58;;;;;;;22.77;4.35;;;11.00;99.90;;;;;;4973986;28;20053;-75
2022/10/02 00:37:40;;;;;;;24.75;4.50;;;11.00;99.90;;;;;;4959103;28;20090;-74
2022/10/02 00:40:28;;;;;;;17.48;3.47;;;10.90;99.90;;;;;;5004957;28;20081;-74
2022/10/02 00:43:01;;;;;;;15.65;3.75;;;10.80;99.90;;;;;;5004128;28;20052;-74
2022/10/02 00:45:48;;;;;;;22.58;4.32;;;10.80;99.90;;;;;;4991674;28;20508;-74
2022/10/02 00:48:25;;;;;;;18.70;4.50;;;10.70;99.90;;;;;;4975040;28;20070;-73
2022/10/02 00:50:57;;;;;;;16.00;4.70;;;10.70;99.90;;;;;;4993421;28;20054;-74
2022/10/02 00:53:32;;;;;;;;;;;10.60;99.90;;;;;;4992818;28;20559;-73
2022/10/02 00:56:31;;;;;;;26.40;4.88;;;10.60;99.90;;;;;;5003895;28;20387;-73
2022/10/02 00:59:19;;;;;;;16.38;5.10;;;10.80;99.90;;;;;;4991209;28;20046;-73
2022/10/02 01:01:52;;;;;;;33.10;5.97;;;10.50;99.90;;;;;;4993157;28;20054;-73
2022/10/02 01:04:33;;;;;;;23.15;5.68;;;10.50;99.90;;;;;;5009276;28;20054;-73
2022/10/02 01:06:59;;;;;;;25.75;6.07;;;10.40;99.90;;;;;;4986262;28;20166;-73
2022/10/02 01:09:25;;;;;;;33.47;6.65;;;10.40;99.90;;;;;;4978761;28;20567;-73
2022/10/02 01:11:51;;;;;;;20.98;5.75;;;10.30;99.90;;;;;;4988007;28;20045;-72
2022/10/02 01:14:17;;;;;;;21.05;6.20;;;10.20;99.90;;;;;;4979830;28;20056;-72
2022/10/02 01:16:43;;;;;;;30.10;7.22;;;10.30;99.90;;;;;;4979269;28;20417;-72
2022/10/02 01:19:29;;;;;;;29.73;6.80;;;10.20;99.90;;;;;;4959839;28;20823;-72
2022/10/02 01:22:16;;;;;;;31.10;7.18;;;10.20;99.90;;;;;;4992982;28;20049;-72
2022/10/02 01:24:55;;;;;;;26.00;7.78;;;10.10;99.90;;;;;;5009653;28;20115;-72
2022/10/02 01:27:23;;;;;;;20.48;6.65;;;10.10;99.90;;;;;;4970882;28;20061;-72
2022/10/02 01:29:55;;;;;;;27.30;6.78;;;10.00;99.90;;;;;;4984911;28;20053;-72
2022/10/02 01:32:28;;;;;;;33.97;7.13;;;10.10;99.90;;;;;;4991173;28;20433;-72
2022/10/02 01:34:54;;;;;;;23.25;5.90;;;10.10;99.90;;;;;;4992490;28;20187;-72
2022/10/02 01:37:27;;;;;;;29.90;6.75;;;10.00;99.90;;;;;;4976806;28;20420;-72
2022/10/02 01:39:55;;;;;;;38.38;6.35;;;10.00;99.90;;;;;;4976403;28;20053;-72
2022/10/02 01:42:20;;;;;;;25.83;5.80;;;9.90;99.90;;;;;;4963246;28;20050;-72
2022/10/02 01:44:47;;;;;;;28.92;6.03;;;9.90;99.90;;;;;;4976885;28;20100;-72
2022/10/02 01:47:22;;;;;;;27.13;6.05;;;9.90;99.90;;;;;;4976038;28;20512;-72
2022/10/02 01:50:01;;;;;;;27.48;6.30;;;9.90;99.90;;;;;;4975752;28;20060;-72
2022/10/02 01:52:26;;;;;;;21.50;5.15;;;9.90;99.90;;;;;;4991993;28;20073;-72
2022/10/02 01:55:31;;;;;;;31.57;6.30;;;9.90;99.90;;;;;;4993457;28;20488;-72
2022/10/02 01:58:22;;;;;;;26.87;5.70;;;9.80;99.90;;;;;;4973866;28;20050;-72
2022/10/02 02:01:18;;;;;;;24.23;5.10;;;9.80;99.90;;;;;;4989522;28;20053;-72
2022/10/02 02:04:02;;;;;;;29.83;6.30;;;9.80;99.90;;;;;;4991702;28;20149;-73
2022/10/02 02:06:56;;;;;;;26.30;5.70;;;9.90;99.90;;;;;;4979827;28;20099;-72
2022/10/02 02:09:31;;;;;;;21.95;4.97;;;9.90;99.90;;;;;;4990903;28;20056;-72
2022/10/02 02:12:08;;;;;;;26.47;5.77;;;9.80;99.90;;;;;;5009605;28;20584;-72
2022/10/02 02:14:38;;;;;;;22.70;4.77;;;9.90;99.90;;;;;;4996650;28;20095;-72
2022/10/02 02:17:38;;;;;;;31.47;5.73;;;10.00;99.90;;;;;;4964378;28;20042;-71
2022/10/02 02:20:20;;;;;;;21.50;5.70;;;9.90;99.90;;;;;;4971597;28;20529;-72
2022/10/02 02:22:50;;;;;;;21.40;5.60;;;9.90;99.90;;;;;;4991520;28;20133;-71
2022/10/02 02:25:21;;;;;;;27.97;5.40;;;10.10;99.90;;;;;;4989785;28;20553;-72
2022/10/02 02:27:57;;;;;;;20.50;3.97;;;10.00;99.90;;;;;;4967744;28;20514;-72
2022/10/02 02:30:23;;;;;;;26.27;5.20;;;10.00;99.90;;;;;;4988715;28;20052;-72
2022/10/02 02:32:57;;;;;;;23.53;4.87;;;10.00;99.90;;;;;;4971496;28;20527;-72
2022/10/02 02:35:36;;;;;;;27.43;5.53;;;10.00;99.90;;;;;;4990585;28;20046;-72
2022/10/02 02:38:39;;;;;;;28.77;5.40;;;10.10;99.90;;;;;;4964017;28;20055;-72
2022/10/02 02:41:20;;;;;;;29.77;5.97;;;10.20;99.90;;;;;;4983734;28;20054;-72
2022/10/02 02:43:52;;;;;;;25.40;5.35;;;10.30;99.90;;;;;;4991362;28;20084;-72
2022/10/02 02:47:02;;;;;;;31.83;5.20;;;10.40;99.90;;;;;;4985431;28;20042;-72
2022/10/02 02:49:26;;;;;;;26.43;5.63;;;10.40;99.90;;;;;;4994532;28;20145;-72
2022/10/02 02:51:53;;;;;;;25.58;5.53;;;10.40;99.90;;;;;;4979581;28;20124;-72
2022/10/02 02:54:24;;;;;;;27.13;5.80;;;10.50;99.90;;;;;;4994464;28;20046;-72
2022/10/02 02:56:51;;;;;;;;;;;10.50;99.90;;;;;;4980729;28;20536;-72
2022/10/02 02:59:19;;;;;;;35.93;5.93;;;10.50;99.90;;;;;;4994961;28;19921;-72
2022/10/02 03:01:45;;;;;;;28.48;5.85;;;10.60;99.90;;;;;;4978589;28;20057;-72
2022/10/02 03:04:12;;;;;;;35.83;5.80;;;10.70;99.90;;;;;;4999090;28;20096;-72
2022/10/02 03:06:42;;;;;;;35.72;6.47;;;10.80;99.90;;;;;;4981736;28;20049;-72
2022/10/02 03:09:15;;;;;;;21.95;4.82;;;10.80;99.90;;;;;;5009919;28;20108;-72
2022/10/02 03:12:07;;;;;;;21.00;5.22;;;10.80;99.90;;;;;;4970718;28;20072;-71
2022/10/02 03:14:51;;;;;;;;;;;10.90;99.90;;;;;;4981955;28;20050;-72
2022/10/02 03:17:25;;;;;;;29.55;4.88;;;10.90;99.90;;;;;;4978629;28;19929;-72
2022/10/02 03:20:07;;;;;;;21.67;5.37;;;10.80;99.90;;;;;;5012724;28;20050;-72
2022/10/02 03:23:05;;;;;;;22.65;4.32;;;10.80;99.90;;;;;;5011996;28;20508;-72
2022/10/02 03:25:43;;;;;;;29.33;4.72;;;10.80;99.90;;;;;;4973830;28;20478;-72
2022/10/02 03:28:35;;;;;;;22.92;5.05;;;10.90;99.90;;;;;;4978766;28;20092;-72
2022/10/02 03:31:02;;;;;;;21.93;4.50;;;10.90;99.90;;;;;;4983924;28;20129;-72
2022/10/02 03:33:30;;;;;;;27.75;4.50;;;10.90;99.90;;;;;;4994257;28;20046;-72
2022/10/02 03:35:56;;;;;;;20.67;4.50;;;10.90;99.90;;;;;;5011905;28;20575;-72
2022/10/02 03:38:24;;;;;;;30.27;4.78;;;11.00;99.90;;;;;;4963318;28;20068;-71
2022/10/02 03:40:51;;;;;;;26.25;4.70;;;10.90;99.90;;;;;;4985634;28;20068;-72
2022/10/02 03:43:21;;;;;;;21.85;4.82;;;10.90;99.90;;;;;;5008134;28;20554;-72
2022/10/02 03:45:47;;;;;;;25.05;4.10;;;10.90;99.90;;;;;;4994193;28;20448;-72
2022/10/02 03:48:14;;;;;;;18.25;4.32;;;11.00;99.90;;;;;;4977956;28;20053;-72
2022/10/02 03:50:39;;;;;;;17.05;3.70;;;11.00;99.90;;;;;;4993144;28;20049;-72
2022/10/02 03:53:14;;;;;;;22.27;3.90;;;11.00;99.90;;;;;;4977147;28;20390;-72
2022/10/02 03:55:51;;;;;;;28.65;4.53;;;11.00;99.90;;;;;;4991286;28;20433;-72
2022/10/02 03:58:17;;;;;;;20.83;4.03;;;11.00;99.90;;;;;;4956010;28;20403;-72
2022/10/02 04:01:10;;;;;;;21.23;4.28;;;10.90;99.90;;;;;;4982167;28;20417;-72
2022/10/02 04:03:42;;;;;;;23.83;4.00;;;11.00;99.90;;;;;;4969005;28;20057;-72
2022/10/02 04:06:13;;;;;;;;;;;10.90;99.90;;;;;;4966344;28;20042;-72
2022/10/02 04:09:13;;;;;;;23.38;3.50;;;10.90;99.90;;;;;;4995418;28;20047;-72
2022/10/02 04:11:45;;;;;;;19.30;3.53;;;10.80;99.90;;;;;;4969471;28;20049;-72
2022/10/02 04:14:24;;;;;;;;;;;10.80;99.90;;;;;;4998561;28;20115;-72
2022/10/02 04:17:25;;;;;;;18.73;3.40;;;10.90;99.90;;;;;;4981705;28;20304;-72
2022/10/02 04:20:04;;;;;;;29.52;4.30;;;10.80;99.90;;;;;;4960244;28;20124;-72
2022/10/02 04:22:48;;;;;;;19.30;3.35;;;10.80;99.90;;;;;;4989698;28;20038;-72
2022/10/02 04:25:28;;;;;;;22.95;3.65;;;10.80;99.90;;;;;;4994243;28;20053;-72
2022/10/02 04:27:58;;;;;;;21.33;3.85;;;10.70;99.90;;;;;;4977481;28;20042;-72
2022/10/02 04:30:24;;;;;;;21.67;3.65;;;10.80;99.90;;;;;;5010593;28;20120;-72
2022/10/02 04:32:50;;;;;;;21.92;3.28;;;10.70;99.90;;;;;;4977013;28;20128;-72
2022/10/02 04:35:42;;;;;;;23.65;3.80;;;10.80;99.90;;;;;;4978075;28;20051;-72
2022/10/02 04:38:25;;;;;;;18.42;3.10;;;10.80;99.90;;;;;;4989139;28;20103;-72
2022/10/02 04:40:53;;;;;;;18.45;3.55;;;10.80;99.90;;;;;;4993862;28;20397;-72
2022/10/02 04:43:19;;;;;;;19.73;3.40;;;11.00;99.90;;;;;;4992781;28;20050;-72
2022/10/02 04:46:02;;;;;;;18.52;3.08;;;10.90;99.90;;;;;;5011100;28;20049;-72
2022/10/02 04:48:45;;;;;;;22.73;3.45;;;11.00;99.90;;;;;;4977707;28;20053;-71
2022/10/02 04:51:39;;;;;;;22.33;3.25;;;11.10;99.90;;;;;;4977530;28;20115;-72
2022/10/02 04:54:24;;;;;;;15.75;3.35;;;11.10;99.90;;;;;;4974726;28;20057;-71
2022/10/02 04:56:58;;;;;;;22.90;3.58;;;11.10;99.90;;;;;;4989625;28;20046;-71
2022/10/02 04:59:48;;;;;;;23.30;3.72;;;11.00;99.90;;;;;;4987894;28;20112;-71
2022/10/02 05:02:23;;;;;;;19.10;3.47;;;11.00;99.90;;;;;;5004528;28;20050;-71
2022/10/02 05:05:03;;;;;;;23.73;3.53;;;11.10;99.90;;;;;;4989855;28;20057;-71
2022/10/02 05:08:08;;;;;;;22.15;3.47;;;11.10;99.90;;;;;;4974064;28;20347;-71
2022/10/02 05:11:02;;;;;;;21.25;3.45;;;11.10;99.90;;;;;;5000822;28;20049;-71
2022/10/02 05:13:44;;;;;;;21.88;3.40;;;11.10;99.90;;;;;;4986844;28;20100;-71
2022/10/02 05:16:46;;;;;;;21.30;3.53;;;10.90;99.90;;;;;;5001581;28;20441;-72
2022/10/02 05:19:58;;;;;;;22.27;3.83;;;11.10;99.90;;;;;;4989402;28;20136;-71
2022/10/02 05:22:38;;;;;;;18.27;3.75;;;11.00;99.90;;;;;;5006979;28;20481;-72
2022/10/02 05:25:35;;;;;;;19.02;3.72;;;10.90;99.90;;;;;;5004722;28;20096;-72
2022/10/02 05:28:08;;;;;;;23.00;3.55;;;10.90;99.90;;;;;;4954458;28;20302;-72
2022/10/02 05:30:45;;;;;;;29.85;3.55;;;10.80;99.90;;;;;;5009101;28;20654;-72
2022/10/02 05:33:31;;;;;;;25.48;4.00;;;10.70;99.90;;;;;;4978122;28;20053;-72
2022/10/02 05:36:18;;;;;;;19.52;3.67;;;10.60;99.90;;;;;;5008303;28;20064;-72
2022/10/02 05:38:49;;;;;;;23.38;3.95;;;10.60;99.90;;;;;;4996306;28;20551;-71
2022/10/02 05:41:33;;;;;;;;;;;10.40;99.90;;;;;;4983811;28;20058;-72
2022/10/02 05:44:06;;;;;;;22.77;3.58;;;10.50;99.90;;;;;;4991452;28;19947;-71
2022/10/02 05:47:00;;;;;;;26.73;4.00;;;10.40;99.90;;;;;;4993017;28;20516;-72
2022/10/02 05:49:43;;;;;;;29.48;3.92;;;10.30;99.90;;;;;;4964430;28;20069;-72
2022/10/02 05:52:18;;;;;;;24.50;3.78;;;10.30;99.90;;;;;;4991962;28;20053;-71
2022/10/02 05:55:02;;;;;;;20.40;3.20;;;10.20;99.90;;;;;;5010211;28;20456;-71
2022/10/02 05:57:40;;;;;;;26.30;3.72;;;10.20;99.90;;;;;;4975576;28;20045;-71
2022/10/02 06:00:11;;;;;;;30.52;4.00;;;10.10;99.90;;;;;;4991260;28;20099;-71
2022/10/02 06:02:43;;;;;;;;;;;10.10;99.90;;;;;;4992410;28;20545;-71
2022/10/02 06:05:41;;;;;;;18.85;3.60;;;10.10;99.90;;;;;;4993114;28;20304;-71
2022/10/02 06:08:12;;;;;;;43.95;18.23;;;10.10;99.90;;;;;;4973508;28;20073;-71
2022/10/02 06:10:45;;;;;;;27.20;4.10;;;10.00;99.90;;;;;;4991394;28;20045;-71
2022/10/02 06:13:23;;;;;;;24.85;3.65;;;9.90;99.90;;;;;;4997308;28;20104;-71
2022/10/02 06:16:09;;;;;;;24.20;3.92;;;10.20;99.90;;;;;;4982560;28;20529;-71
2022/10/02 06:18:37;;;;;;;25.73;4.00;;;10.10;99.90;;;;;;4970241;28;20096;-71
2022/10/02 06:21:24;;;;;;;35.83;4.10;;;10.10;99.90;;;;;;4996137;28;20057;-71
2022/10/02 06:23:54;;;;;;;31.08;3.80;;;10.10;99.90;;;;;;5008609;28;20427;-71
2022/10/02 06:26:54;;;;;;;23.17;4.22;;;10.10;99.90;;;;;;4972514;28;20069;-71
2022/10/02 06:29:26;;;;;;;24.35;4.18;;;10.30;99.90;;;;;;5007885;28;20065;-71
2022/10/02 06:32:23;;;;;;;21.52;3.80;;;10.40;99.90;;;;;;4995541;28;20100;-71
2022/10/02 06:34:49;;;;;;;22.85;3.28;;;10.50;99.90;;;;;;4995221;28;20053;-71
2022/10/02 06:37:53;;;;;;;22.52;3.58;;;10.60;99.90;;;;;;4980913;28;20046;-71
2022/10/02 06:40:19;;;;;;;23.65;3.63;;;10.60;99.90;;;;;;4977857;28;20057;-71
2022/10/02 06:42:57;;;;;;;25.45;3.97;;;10.60;99.90;;;;;;4995423;28;20060;-71
2022/10/02 06:45:51;;;;;;;22.42;3.38;;;10.60;99.90;;;;;;4984113;28;20049;-71
2022/10/02 06:48:33;;;;;;;22.45;3.88;;;10.80;99.90;;;;;;4983888;28;20054;-71
2022/10/02 06:51:10;;;;;;;24.25;3.67;;;10.90;99.90;;;;;;5013526;28;20049;-71
2022/10/02 06:54:18;;;;;;;17.17;4.00;;;11.10;99.90;;;;;;4999941;28;20057;-71
2022/10/02 06:57:01;;;;;;;29.60;4.78;;;11.30;99.90;;;;;;4976159;28;20050;-71
2022/10/02 06:59:27;;;;;;;21.05;3.80;;;11.70;99.90;;;;;;4987900;28;20053;-71
2022/10/02 07:02:17;;;;;;;25.40;3.75;;;11.70;99.90;;;;;;4991684;28;20065;-71
2022/10/02 07:05:01;;;;;;;19.40;3.38;;;11.80;99.90;;;;;;4995168;28;20050;-71
2022/10/02 07:07:48;;;;;;;29.15;4.13;;;11.90;99.90;;;;;;4979580;28;20063;-71
2022/10/02 07:10:25;;;;;;;23.70;4.25;;;11.80;99.90;;;;;;4966063;28;20056;-71
2022/10/02 07:13:29;;;;;;;21.58;3.80;;;11.80;99.90;;;;;;4973377;28;20400;-71
2022/10/02 07:16:26;;;;;;;19.17;3.90;;;11.90;99.90;;;;;;4992278;28;20413;-71
2022/10/02 07:18:51;;;;;;;22.58;4.20;;;11.90;99.90;;;;;;5007518;28;20046;-71
2022/10/02 07:21:26;;;;;;;21.85;3.58;;;11.90;99.90;;;;;;4994815;28;20049;-71
2022/10/02 07:23:51;;;;;;;20.70;3.65;;;11.90;99.90;;;;;;4994203;28;20046;-71
2022/10/02 07:26:36;;;;;;;18.63;3.78;;;11.90;99.90;;;;;;4984664;28;20058;-72
2022/10/02 07:29:37;;;;;;;18.35;3.33;;;11.90;99.90;;;;;;4992613;28;20058;-71
2022/10/02 07:32:22;;;;;;;15.20;3.30;;;12.00;99.90;;;;;;4983357;28;20061;-71
2022/10/02 07:35:12;;;;;;;16.73;3.03;;;12.20;99.90;;;;;;4993594;28;20046;-71
2022/10/02 07:37:56;;;;;;;19.10;3.13;;;12.30;99.90;;;;;;4963532;28;20061;-71
2022/10/02 07:41:03;;;;;;;19.67;3.40;;;12.30;99.90;;;;;;4994934;28;20120;-71
2022/10/02 07:44:01;;;;;;;17.85;2.88;;;12.30;99.90;;;;;;4994415;28;20046;-71
2022/10/02 07:46:42;;;;;;;23.73;3.00;;;12.30;99.90;;;;;;4982138;28;20598;-71
2022/10/02 07:49:35;;;;;;;15.82;3.05;;;12.20;99.90;;;;;;4992099;28;20096;-71
2022/10/02 07:52:38;;;;;;;13.73;2.92;;;12.30;99.90;;;;;;4995135;28;20046;-71
2022/10/02 07:55:20;;;;;;;14.50;2.83;;;12.30;99.90;;;;;;4993578;28;20058;-71
2022/10/02 07:58:21;;;;;;;11.40;2.60;;;12.30;99.90;;;;;;4982409;28;20125;-71
2022/10/02 08:01:11;;;;;;;15.15;2.97;;;12.30;99.90;;;;;;5007247;28;20050;-71
2022/10/02 08:04:12;;;;;;;19.20;3.03;;;12.30;99.90;;;;;;5001042;28;20042;-71
2022/10/02 08:06:39;;;;;;;11.60;2.60;;;12.40;99.90;;;;;;4966599;28;20120;-71
2022/10/02 08:09:27;;;;;;;13.13;2.28;;;12.50;99.90;;;;;;5009974;28;20378;-72
2022/10/02 08:12:01;;;;;;;12.75;2.22;;;12.50;99.90;;;;;;4988831;28;20045;-71
2022/10/02 08:14:37;;;;;;;13.98;2.50;;;12.60;99.90;;;;;;4958932;28;20038;-71
2022/10/02 08:17:24;;;;;;;18.48;2.65;;;12.70;99.90;;;;;;4994463;28;20038;-72
2022/10/02 08:19:51;;;;;;;19.38;2.60;;;12.60;99.90;;;;;;4972543;28;20049;-71
2022/10/02 08:22:32;;;;;;;10.35;2.35;;;12.60;99.90;;;;;;4986863;28;20044;-71
2022/10/02 08:25:20;;;;;;;17.05;2.88;;;12.50;99.90;;;;;;5002636;28;20418;-71
2022/10/02 08:28:09;;;;;;;14.32;2.80;;;12.50;99.90;;;;;;4969240;28;20081;-71
2022/10/02 08:30:35;;;;;;;12.40;2.78;;;12.50;99.90;;;;;;4981075;28;20120;-71
2022/10/02 08:33:09;;;;;;;14.65;2.90;;;12.50;99.90;;;;;;4981036;28;20154;-71
2022/10/02 08:35:46;;;;;;;13.63;2.85;;;12.50;99.90;;;;;;5004337;28;20037;-71
2022/10/02 08:38:33;;;;;;;12.80;2.80;;;12.50;99.90;;;;;;4975965;28;20448;-71
2022/10/02 08:41:20;;;;;;;18.00;3.30;;;12.50;99.90;;;;;;4985673;28;20054;-71
2022/10/02 08:44:23;;;;;;;14.63;2.88;;;12.50;99.90;;;;;;4982354;28;20100;-71
2022/10/02 08:46:58;;;;;;;11.85;2.67;;;12.50;99.90;;;;;;4984460;28;20041;-72
2022/10/02 08:50:13;;;;;;;12.10;2.50;;;12.40;99.90;;;;;;4981442;28;20068;-72
2022/10/02 08:52:51;;;;;;;11.38;2.22;;;12.40;99.90;;;;;;4984181;28;20045;-71
2022/10/02 08:55:36;;;;;;;10.88;2.13;;;12.40;99.90;;;;;;4989214;28;20053;-73
2022/10/02 08:58:39;;;;;;;9.43;1.95;;;12.40;99.90;;;;;;4951987;28;20046;-72
2022/10/02 09:01:33;;;;;;;14.20;2.92;;;12.50;99.90;;;;;;4984518;28;20056;-73
2022/10/02 09:04:27;;;;;;;13.23;2.20;;;12.60;99.90;;;;;;4984469;28;20046;-73
2022/10/02 09:07:30;;;;;;;10.77;2.28;;;12.60;99.90;;;;;;4965042;28;20398;-73
2022/10/02 09:09:57;;;;;;;10.63;2.60;;;12.60;99.90;;;;;;4981377;28;20053;-74
2022/10/02 09:12:44;;;;;;;10.77;2.22;;;12.70;99.90;;;;;;5002223;28;20413;-73
2022/10/02 09:15:33;;;;;;;13.15;2.47;;;12.80;99.90;;;;;;4980376;28;20570;-73
2022/10/02 09:18:15;;;;;;;15.93;2.90;;;13.00;99.90;;;;;;4971213;28;20100;-73
2022/10/02 09:21:04;;;;;;;20.02;3.47;;;13.20;99.90;;;;;;5006356;28;20057;-73
2022/10/02 09:23:55;;;;;;;18.10;3.20;;;13.40;99.90;;;;;;5004940;28;20042;-73
2022/10/02 09:26:38;;;;;;;19.40;3.40;;;13.50;99.90;;;;;;4978221;28;20057;-73
2022/10/02 09:29:19;;;;;;;17.88;3.30;;;13.70;99.90;;;;;;4986170;28;20165;-72
2022/10/02 09:32:23;;;;;;;15.63;3.05;;;13.80;99.90;;;;;;5005686;28;20050;-73
2022/10/02 09:35:13;;;;;;;16.17;3.33;;;14.00;99.90;;;;;;4984888;28;20042;-72
2022/10/02 09:38:10;;;;;;;19.40;3.65;;;14.10;99.90;;;;;;4966753;28;20053;-72
2022/10/02 09:41:13;;;;;;;14.35;3.20;;;14.20;99.90;;;;;;4993028;28;20139;-73
2022/10/02 09:44:23;;;;;;;20.25;3.65;;;14.30;99.90;;;;;;4984253;28;20088;-72
2022/10/02 09:47:27;;;;;;;15.07;3.30;;;14.40;99.90;;;;;;4915908;28;20411;-72
2022/10/02 09:50:17;;;;;;;19.85;3.28;;;14.60;99.90;;;;;;4904447;29;20152;-72
2022/10/02 09:53:07;;;;;;;18.10;3.75;;;14.70;99.90;;;;;;4900185;29;20059;-72
2022/10/02 09:55:57;;;;;;;20.85;3.20;;;14.70;99.90;;;;;;4972577;28;20444;-72
2022/10/02 09:58:47;;;;;;;14.23;2.83;;;14.80;99.90;;;;;;4989129;28;20044;-71
2022/10/02 10:01:39;;;;;;;16.75;3.20;;;14.90;99.90;;;;;;4986314;28;20093;-71
2022/10/02 10:04:17;;;;;;;13.70;3.28;;;15.10;99.90;;;;;;4987404;28;20237;-71
2022/10/02 10:07:01;;;;;;;19.42;3.50;;;15.00;99.90;;;;;;4974160;28;20099;-71
2022/10/02 10:09:55;;;;;;;16.73;3.28;;;14.90;99.90;;;;;;4970634;28;20049;-71
2022/10/02 10:13:11;;;;;;;20.50;3.55;;;14.70;99.90;;;;;;5002631;28;20497;-70
2022/10/02 10:16:18;;;;;;;17.50;3.30;;;14.70;99.90;;;;;;4909960;29;20092;-72
2022/10/02 10:19:10;;;;;;;18.30;3.80;;;14.80;99.90;;;;;;4941831;28;20044;-72
2022/10/02 10:22:20;;;;;;;15.90;3.13;;;14.70;99.90;;;;;;4987356;28;20531;-72
2022/10/02 10:25:09;;;;;;;14.55;2.65;;;14.70;99.90;;;;;;4976391;28;20524;-70
2022/10/02 10:28:07;;;;;;;17.20;3.38;;;14.80;99.90;;;;;;4970639;28;20053;-71
2022/10/02 10:31:01;;;;;;;10.95;2.70;;;15.20;99.90;;;;;;4988000;28;20058;-72
2022/10/02 10:33:40;;;;;;;13.20;2.83;;;15.50;99.90;;;;;;4987373;28;20132;-71
2022/10/02 10:39:34;;;;;;;17.63;2.78;;;15.70;99.90;;;;;;4986731;28;20053;-71
2022/10/02 10:42:19;;;;;;;18.25;3.88;;;15.60;99.90;;;;;;4986726;28;20046;-72
2022/10/02 10:45:17;;;;;;;12.98;3.20;;;15.40;99.90;;;;;;4987132;28;20527;-71
2022/10/02 10:48:10;;;;;;;16.75;2.80;;;15.40;99.90;;;;;;4969881;28;20053;-70
2022/10/02 10:50:49;;;;;;;18.63;3.38;;;15.50;99.90;;;;;;4971941;28;20556;-71
2022/10/02 10:53:35;;;;;;;16.02;2.70;;;15.70;99.90;;;;;;5005885;28;20124;-71
2022/10/02 10:56:20;;;;;;;16.45;3.13;;;15.60;99.90;;;;;;4988921;28;20505;-71
2022/10/02 10:58:51;;;;;;;16.98;3.03;;;15.50;99.90;;;;;;4983789;28;20140;-71
2022/10/02 11:01:22;;;;;;;16.60;3.13;;;15.60;99.90;;;;;;4985527;28;20054;-72
2022/10/02 11:03:57;;;;;;;10.35;2.20;;;15.60;99.90;;;;;;4986871;28;20103;-72
2022/10/02 11:06:34;;;;;;;20.60;3.13;;;15.70;99.90;;;;;;4979882;28;20041;-71
2022/10/02 11:09:31;;;;;;;14.75;3.10;;;15.70;99.90;;;;;;4989815;28;20049;-71
2022/10/02 11:12:22;;;;;;;14.68;3.30;;;15.40;99.90;;;;;;4991829;28;20065;-71
2022/10/02 11:15:07;;;;;;;17.58;3.33;;;15.20;99.90;;;;;;4982748;28;20113;-71
2022/10/02 11:17:42;;;;;;;18.15;2.83;;;15.10;99.90;;;;;;4991381;28;20069;-70
2022/10/02 11:20:42;;;;;;;17.63;2.78;;;15.00;99.90;;;;;;4976069;28;20225;-71
2022/10/02 11:23:27;;;;;;;12.88;3.20;;;15.20;99.90;;;;;;4990420;28;20049;-71
2022/10/02 11:26:35;;;;;;;14.57;2.95;;;15.40;99.90;;;;;;4992327;28;20057;-71
2022/10/02 11:29:35;;;;;;;14.18;2.65;;;15.60;99.90;;;;;;4986459;28;20556;-71
2022/10/02 11:32:38;;;;;;;15.93;2.85;;;15.80;99.90;;;;;;4989620;28;20052;-71
2022/10/02 11:35:07;;;;;;;12.95;2.97;;;15.50;99.90;;;;;;4990258;28;20076;-71
2022/10/02 11:37:58;;;;;;;12.38;2.88;;;15.40;99.90;;;;;;4976833;28;20072;-70
2022/10/02 11:40:39;;;;;;;9.65;2.33;;;15.50;99.90;;;;;;4991625;28;20140;-71
2022/10/02 11:43:33;;;;;;;16.40;2.83;;;15.40;99.90;;;;;;4988111;28;20460;-71
2022/10/02 11:46:02;;;;;;;18.63;3.25;;;15.10;99.90;;;;;;4980076;28;20065;-71
2022/10/02 11:48:48;;;;;;;12.52;2.38;;;14.90;99.90;;;;;;4957944;28;20049;-70
2022/10/02 11:51:38;;;;;;;13.32;2.45;;;14.70;99.90;;;;;;4989906;28;20080;-70
2022/10/02 11:54:04;;;;;;;11.32;2.75;;;14.80;99.90;;;;;;4987719;28;20053;-70
2022/10/02 11:57:00;;;;;;;16.23;3.00;;;14.90;99.90;;;;;;4978523;28;20919;-70
2022/10/02 11:59:47;;;;;;;16.08;2.90;;;15.00;99.90;;;;;;4990325;28;20547;-70
2022/10/02 12:02:21;;;;;;;16.48;2.97;;;15.00;99.90;;;;;;4970718;28;20042;-70
2022/10/02 12:04:51;;;;;;;18.33;3.42;;;14.80;99.90;;;;;;5002581;28;20428;-70
2022/10/02 12:07:39;;;;;;;16.77;2.97;;;14.70;99.90;;;;;;4967754;28;20050;-70
2022/10/02 12:10:23;;;;;;;16.08;2.63;;;14.60;99.90;;;;;;4992145;28;20477;-70
2022/10/02 12:13:23;;;;;;;14.30;2.45;;;14.60;99.90;;;;;;4990145;28;20058;-70
2022/10/02 12:15:51;;;;;;;13.23;2.85;;;14.60;99.90;;;;;;5009535;28;20077;-71
2022/10/02 12:18:30;;;;;;;11.93;2.67;;;14.70;99.90;;;;;;4959275;28;20046;-70
2022/10/02 12:26:59;;;;;;;10.60;2.78;;;14.60;99.90;;;;;;4975623;28;20607;-70
2022/10/02 12:29:33;;;;;;;13.90;2.63;;;14.60;99.90;;;;;;4986575;28;20054;-70
2022/10/02 12:32:36;;;;;;;14.48;2.63;;;14.60;99.90;;;;;;4988990;28;20096;-71
2022/10/02 12:35:18;;;;;;;13.27;2.60;;;14.70;99.90;;;;;;4989157;28;20052;-71
2022/10/02 12:38:02;;;;;;;21.15;3.38;;;14.60;99.90;;;;;;4965324;28;20056;-71
2022/10/02 12:40:56;;;;;;;18.40;3.50;;;14.60;99.90;;;;;;4971311;28;20081;-71
2022/10/02 12:43:55;;;;;;;18.55;3.58;;;14.50;99.90;;;;;;4985340;28;20055;-70
2022/10/02 12:46:50;;;;;;;16.95;3.60;;;14.60;99.90;;;;;;4979601;28;20038;-71
2022/10/02 12:49:19;;;;;;;14.18;3.15;;;14.60;99.90;;;;;;4986477;28;20045;-71
2022/10/02 12:52:06;;;;;;;16.45;3.05;;;15.00;99.90;;;;;;4974148;28;20045;-71
2022/10/02 12:55:02;;;;;;;15.60;3.72;;;15.20;99.90;;;;;;4975794;28;20043;-70
2022/10/02 12:57:52;;;;;;;19.15;3.00;;;15.40;99.90;;;;;;4969317;28;20116;-70
2022/10/02 13:00:30;;;;;;;13.68;2.95;;;15.40;99.90;;;;;;4990045;28;20125;-70
2022/10/02 13:03:26;;;;;;;19.05;2.80;;;15.30;99.90;;;;;;4985050;28;20065;-71
2022/10/02 13:06:16;;;;;;;12.93;2.83;;;15.30;99.90;;;;;;4986572;28;20391;-71
2022/10/02 13:09:09;;;;;;;21.13;3.13;;;15.30;99.90;;;;;;4956417;28;20524;-71
2022/10/02 13:11:45;;;;;;;18.38;3.78;;;15.40;99.90;;;;;;4971823;28;20050;-71
2022/10/02 13:14:46;;;;;;;17.40;2.92;;;15.60;99.90;;;;;;4977560;28;20528;-71
2022/10/02 13:17:21;;;;;;;17.30;3.47;;;15.60;99.90;;;;;;4963988;28;20516;-71
2022/10/02 13:20:02;;;;;;;11.73;2.58;;;15.70;99.90;;;;;;4984949;28;20390;-71
2022/10/02 13:22:49;;;;;;;18.83;3.63;;;15.70;99.90;;;;;;4987996;28;20576;-72
2022/10/02 13:25:33;;;;;;;16.85;2.85;;;15.80;99.90;;;;;;4969469;28;20292;-70
2022/10/02 13:28:28;;;;;;;16.50;2.67;;;15.50;99.90;;;;;;4970806;28;20463;-71
2022/10/02 13:31:12;;;;;;;9.80;2.35;;;15.40;99.90;;;;;;4969834;28;20136;-71
2022/10/02 13:33:56;;;;;;;19.92;3.22;;;15.50;99.90;;;;;;5003415;28;20429;-70
2022/10/02 13:37:00;;;;;;;15.98;2.88;;;15.60;99.90;;;;;;4974936;28;20083;-71
2022/10/02 13:39:53;;;;;;;19.77;3.33;;;15.70;99.90;;;;;;4985875;28;20133;-70
2022/10/02 13:42:51;;;;;;;17.58;3.40;;;15.50;99.90;;;;;;4987018;28;20493;-71
2022/10/02 13:45:23;;;;;;;23.30;3.78;;;15.30;99.90;;;;;;4957699;28;20050;-70
2022/10/02 13:47:51;;;;;;;13.10;2.67;;;15.10;99.90;;;;;;4956517;28;20046;-71
2022/10/02 13:50:56;;;;;;;17.92;3.33;;;15.10;99.90;;;;;;4973245;28;20523;-71
2022/10/02 13:53:45;;;;;;;19.17;3.70;;;15.10;99.90;;;;;;4967233;28;20042;-70
2022/10/02 13:56:42;;;;;;;19.50;3.35;;;15.10;99.90;;;;;;4961837;28;20050;-72
2022/10/02 13:59:43;;;;;;;16.73;4.03;;;15.00;99.90;;;;;;4992347;28;20136;-71
2022/10/02 14:02:11;;;;;;;22.27;3.35;;;14.90;99.90;;;;;;4982929;28;20058;-71
2022/10/02 14:05:03;;;;;;;14.80;3.33;;;14.80;99.90;;;;;;4959679;28;20477;-71
2022/10/02 14:07:52;;;;;;;;;;;14.80;99.90;;;;;;4969984;28;20089;-71
2022/10/02 14:10:25;;;;;;;18.65;3.42;;;14.70;99.90;;;;;;4975319;28;20270;-71